Time;durP1;ratioP1;P1;durP2;ratioP2;P2;SDS_P1;SDS_P2;PMS_P1;PMS_P2;Temp;Humidity;BMP_temperature;BMP_pressure;BME280_temperature;BME280_humidity;BME280_pressure;Samples;Min_cycle;Max_cycle;Signal;HPM_P1;HPM_P2
2023/08/24 00:00:38;;;;;;;14.80;2.08;;;15.40;99.90;;;;;;5054549;28;20045;-74
2023/08/24 00:03:04;;;;;;;3.75;2.00;;;15.40;99.90;;;;;;5054492;28;20127;-73
2023/08/24 00:05:33;;;;;;;5.78;1.58;;;15.30;99.90;;;;;;5054469;28;20136;-74
2023/08/24 00:07:59;;;;;;;2.15;1.40;;;15.30;99.90;;;;;;5054365;28;20049;-74
2023/08/24 00:10:26;;;;;;;1.75;1.13;;;15.30;99.90;;;;;;5054271;28;20179;-74
2023/08/24 00:12:51;;;;;;;1.58;1.00;;;15.30;99.90;;;;;;5054265;28;20421;-74
2023/08/24 00:15:17;;;;;;;3.05;1.30;;;15.30;99.90;;;;;;5054549;28;20048;-74
2023/08/24 00:17:43;;;;;;;2.42;1.35;;;15.30;99.90;;;;;;5054790;28;20037;-74
2023/08/24 00:20:11;;;;;;;2.20;1.40;;;15.20;99.90;;;;;;5054451;28;20037;-74
2023/08/24 00:22:38;;;;;;;3.55;2.33;;;15.20;99.90;;;;;;5054032;28;20049;-74
2023/08/24 00:25:05;;;;;;;23.10;3.33;;;15.30;99.90;;;;;;5054825;28;20056;-75
2023/08/24 00:27:30;;;;;;;27.10;3.10;;;15.30;99.90;;;;;;5053454;28;20084;-75
2023/08/24 00:29:56;;;;;;;8.00;1.60;;;15.20;99.90;;;;;;5053927;28;20111;-74
2023/08/24 00:32:23;;;;;;;1.65;1.05;;;15.20;99.90;;;;;;5053958;28;20049;-74
2023/08/24 00:34:48;;;;;;;1.98;1.38;;;15.20;99.90;;;;;;5053993;28;20444;-75
2023/08/24 00:37:14;;;;;;;29.08;2.60;;;15.20;99.90;;;;;;5054424;28;20041;-74
2023/08/24 00:39:41;;;;;;;1.85;1.00;;;15.20;99.90;;;;;;5053939;28;20099;-75
2023/08/24 00:42:08;;;;;;;8.38;1.90;;;15.10;99.90;;;;;;5054319;28;20049;-74
2023/08/24 00:44:34;;;;;;;2.55;1.40;;;15.10;99.90;;;;;;5053715;28;20102;-75
2023/08/24 00:47:00;;;;;;;18.05;2.90;;;15.00;99.90;;;;;;5054054;28;20048;-74
2023/08/24 00:49:26;;;;;;;2.58;1.33;;;15.00;99.90;;;;;;5036355;28;20049;-74
2023/08/24 00:51:52;;;;;;;3.30;2.13;;;15.00;99.90;;;;;;5053490;28;20041;-74
2023/08/24 00:54:18;;;;;;;3.55;2.45;;;15.00;99.90;;;;;;5036809;28;20053;-74
2023/08/24 00:56:44;;;;;;;3.00;2.20;;;15.00;99.90;;;;;;5054488;28;20084;-74
2023/08/24 00:59:10;;;;;;;3.22;2.13;;;15.00;99.90;;;;;;5054027;28;20180;-74
2023/08/24 01:01:37;;;;;;;2.40;1.70;;;15.00;99.90;;;;;;5053522;28;20045;-75
2023/08/24 01:04:03;;;;;;;2.85;2.22;;;15.00;99.90;;;;;;5036233;28;20505;-74
2023/08/24 01:06:29;;;;;;;66.78;5.05;;;15.00;99.90;;;;;;5053859;28;20161;-75
2023/08/24 01:08:55;;;;;;;36.72;3.33;;;14.90;99.90;;;;;;5053511;28;20041;-75
2023/08/24 01:11:26;;;;;;;22.88;1.70;;;14.80;99.90;;;;;;5053392;28;20107;-75
2023/08/24 01:14:04;;;;;;;1.90;1.40;;;14.70;99.90;;;;;;5036248;28;20045;-74
2023/08/24 01:16:32;;;;;;;2.65;1.70;;;14.80;99.90;;;;;;5054028;28;20049;-74
2023/08/24 01:19:00;;;;;;;2.47;1.75;;;14.80;99.90;;;;;;5053449;28;20044;-75
2023/08/24 01:21:28;;;;;;;1.88;1.23;;;14.70;99.90;;;;;;5053394;28;20041;-74
2023/08/24 01:24:12;;;;;;;2.38;1.23;;;14.60;99.90;;;;;;5053461;28;20393;-74
2023/08/24 01:26:39;;;;;;;2.22;1.40;;;14.50;99.90;;;;;;5054163;28;20132;-75
2023/08/24 01:29:05;;;;;;;1.67;1.08;;;14.50;99.90;;;;;;5053903;28;20084;-74
2023/08/24 01:31:31;;;;;;;3.53;1.70;;;14.50;99.90;;;;;;5053818;28;20045;-74
2023/08/24 01:33:56;;;;;;;15.25;3.05;;;14.60;99.90;;;;;;5053209;28;20102;-74
2023/08/24 01:36:22;;;;;;;2.60;1.83;;;14.60;99.90;;;;;;5053286;28;20117;-74
2023/08/24 01:38:59;;;;;;;2.25;1.50;;;14.70;99.90;;;;;;5052873;28;20448;-74
2023/08/24 01:41:37;;;;;;;2.10;1.40;;;14.70;99.90;;;;;;5052327;28;20059;-76
2023/08/24 01:44:04;;;;;;;3.25;2.13;;;14.80;99.90;;;;;;5053859;28;20057;-74
2023/08/24 01:46:33;;;;;;;4.28;3.25;;;14.90;99.90;;;;;;5053145;28;20513;-74
2023/08/24 01:48:59;;;;;;;4.93;3.08;;;15.10;99.90;;;;;;5053683;28;20382;-74
2023/08/24 01:51:25;;;;;;;2.90;2.08;;;15.20;99.90;;;;;;5053021;28;20044;-76
2023/08/24 01:53:53;;;;;;;3.60;2.08;;;15.30;99.90;;;;;;5053056;28;20092;-74
2023/08/24 01:56:18;;;;;;;4.72;3.10;;;15.40;99.90;;;;;;5036221;28;20044;-74
2023/08/24 01:58:44;;;;;;;5.70;3.10;;;15.40;99.90;;;;;;5056853;28;20098;-75
2023/08/24 02:01:10;;;;;;;4.00;2.38;;;15.40;99.90;;;;;;5057333;28;20343;-74
2023/08/24 02:03:38;;;;;;;3.45;2.25;;;15.50;99.90;;;;;;5057158;28;20095;-74
2023/08/24 02:06:06;;;;;;;3.95;2.72;;;15.50;99.90;;;;;;5056721;28;20052;-74
2023/08/24 02:08:32;;;;;;;4.15;2.88;;;15.50;99.90;;;;;;5056743;28;20052;-75
2023/08/24 02:10:58;;;;;;;4.20;3.00;;;15.60;99.90;;;;;;5055198;28;20131;-74
2023/08/24 02:13:24;;;;;;;4.80;3.00;;;15.70;99.90;;;;;;5056665;28;20056;-75
2023/08/24 02:15:49;;;;;;;4.80;3.45;;;15.70;99.90;;;;;;5056680;28;20045;-74
2023/08/24 02:18:15;;;;;;;3.33;2.40;;;15.70;99.90;;;;;;5056790;28;20049;-74
2023/08/24 02:20:41;;;;;;;4.40;3.20;;;15.80;99.90;;;;;;5057310;28;20450;-75
2023/08/24 02:23:06;;;;;;;4.50;3.58;;;15.80;99.90;;;;;;5056162;28;20049;-74
2023/08/24 02:25:33;;;;;;;5.03;3.38;;;15.90;99.90;;;;;;5056330;28;20128;-74
2023/08/24 02:27:59;;;;;;;5.28;3.50;;;15.90;99.90;;;;;;5056868;28;20037;-74
2023/08/24 02:30:25;;;;;;;5.68;4.43;;;15.90;99.90;;;;;;5056329;28;20470;-76
2023/08/24 02:32:51;;;;;;;6.78;4.50;;;16.00;99.90;;;;;;5056748;28;20053;-75
2023/08/24 02:35:18;;;;;;;8.02;4.68;;;16.00;99.90;;;;;;5057986;28;20056;-74
2023/08/24 02:37:43;;;;;;;6.95;5.25;;;16.00;99.90;;;;;;5040899;28;20426;-75
2023/08/24 02:40:09;;;;;;;5.85;4.65;;;16.00;99.90;;;;;;5058993;28;20048;-75
2023/08/24 02:42:35;;;;;;;6.63;4.35;;;16.00;99.90;;;;;;5056265;28;20437;-74
2023/08/24 02:45:02;;;;;;;5.93;4.40;;;16.10;99.90;;;;;;5056028;28;20052;-75
2023/08/24 02:47:28;;;;;;;5.85;4.45;;;16.00;99.90;;;;;;5055975;28;20088;-74
2023/08/24 02:49:53;;;;;;;7.07;4.50;;;16.10;99.90;;;;;;5055789;28;20083;-74
2023/08/24 02:52:19;;;;;;;6.07;4.25;;;16.10;99.90;;;;;;5056329;28;20056;-74
2023/08/24 02:54:44;;;;;;;6.65;4.72;;;16.10;99.90;;;;;;5037925;28;20037;-74
2023/08/24 02:57:10;;;;;;;5.55;4.28;;;16.10;99.90;;;;;;5038195;28;20405;-75
2023/08/24 02:59:36;;;;;;;5.53;3.95;;;16.10;99.90;;;;;;5055699;28;20393;-75
2023/08/24 03:02:02;;;;;;;4.93;3.50;;;16.10;99.90;;;;;;5056243;28;20400;-74
2023/08/24 03:04:28;;;;;;;4.18;3.65;;;16.00;99.90;;;;;;5055712;28;20052;-74
2023/08/24 03:06:54;;;;;;;4.80;3.92;;;16.00;99.90;;;;;;5055100;28;20397;-74
2023/08/24 03:09:19;;;;;;;6.05;4.47;;;16.00;99.90;;;;;;5054462;28;20056;-75
2023/08/24 03:11:45;;;;;;;8.43;4.47;;;16.00;99.90;;;;;;5055440;28;20100;-74
2023/08/24 03:14:11;;;;;;;7.05;4.57;;;16.00;99.90;;;;;;5055715;28;20048;-73
2023/08/24 03:16:39;;;;;;;6.25;4.55;;;16.00;99.90;;;;;;5055944;28;20053;-74
2023/08/24 03:19:05;;;;;;;7.90;5.28;;;16.00;99.90;;;;;;5054693;28;20045;-74
2023/08/24 03:21:30;;;;;;;7.88;4.45;;;16.00;99.90;;;;;;5055277;28;20103;-74
2023/08/24 03:23:56;;;;;;;6.80;4.80;;;16.00;99.90;;;;;;5055296;28;20060;-75
2023/08/24 03:26:23;;;;;;;5.70;4.05;;;16.00;99.90;;;;;;5055163;28;20049;-74
2023/08/24 03:28:49;;;;;;;4.68;3.80;;;16.00;99.90;;;;;;5055203;28;20482;-75
2023/08/24 03:31:16;;;;;;;5.40;3.58;;;15.90;99.90;;;;;;5054472;28;20052;-75
2023/08/24 03:33:41;;;;;;;5.03;3.60;;;15.90;99.90;;;;;;5055329;28;20137;-74
2023/08/24 03:36:07;;;;;;;4.45;3.28;;;15.80;99.90;;;;;;5055074;28;20131;-74
2023/08/24 03:38:33;;;;;;;4.70;3.50;;;15.80;99.90;;;;;;5054980;28;20087;-74
2023/08/24 03:41:03;;;;;;;5.40;3.83;;;15.70;99.90;;;;;;5054962;28;20194;-75
2023/08/24 03:43:33;;;;;;;5.22;3.60;;;15.70;99.90;;;;;;5054938;28;20174;-74
2023/08/24 03:45:59;;;;;;;5.18;3.80;;;15.60;99.90;;;;;;5054929;28;20049;-74
2023/08/24 03:48:25;;;;;;;5.63;3.95;;;15.60;99.90;;;;;;5055422;28;20113;-74
2023/08/24 03:50:54;;;;;;;4.78;3.85;;;15.60;99.90;;;;;;5054942;28;20470;-74
2023/08/24 03:53:20;;;;;;;7.53;3.83;;;15.60;99.90;;;;;;5054719;28;20049;-74
2023/08/24 03:55:49;;;;;;;6.13;3.90;;;15.60;99.90;;;;;;5054636;28;20041;-74
2023/08/24 03:58:15;;;;;;;5.15;3.80;;;15.60;99.90;;;;;;5054647;28;20128;-76
2023/08/24 04:00:41;;;;;;;5.43;3.88;;;15.50;99.90;;;;;;5054585;28;20084;-75
2023/08/24 04:03:08;;;;;;;5.32;4.03;;;15.50;99.90;;;;;;5054491;28;20052;-75
2023/08/24 04:05:33;;;;;;;5.90;4.13;;;15.50;99.90;;;;;;5054574;28;20076;-75
2023/08/24 04:08:02;;;;;;;5.72;4.07;;;15.40;99.90;;;;;;5054424;28;20044;-74
2023/08/24 04:10:29;;;;;;;6.13;4.53;;;15.40;99.90;;;;;;5054247;28;20037;-74
2023/08/24 04:12:55;;;;;;;6.40;4.40;;;15.40;99.90;;;;;;5054319;28;20045;-75
2023/08/24 04:15:22;;;;;;;5.65;4.45;;;15.40;99.90;;;;;;5054305;28;20047;-75
2023/08/24 04:17:48;;;;;;;6.85;4.25;;;15.40;99.90;;;;;;5054790;28;20432;-75
2023/08/24 04:20:14;;;;;;;6.78;4.32;;;15.30;99.90;;;;;;5053804;28;20045;-74
2023/08/24 04:22:40;;;;;;;6.65;3.80;;;15.30;99.90;;;;;;5054968;28;20125;-75
2023/08/24 04:25:06;;;;;;;5.65;3.72;;;15.30;99.90;;;;;;5054639;28;20101;-74
2023/08/24 04:27:32;;;;;;;5.30;3.63;;;15.30;99.90;;;;;;5054350;28;20406;-75
2023/08/24 04:29:58;;;;;;;4.60;3.25;;;15.20;99.90;;;;;;5053874;28;20064;-75
2023/08/24 04:32:24;;;;;;;5.05;3.53;;;15.20;99.90;;;;;;5054020;28;20056;-75
2023/08/24 04:34:50;;;;;;;4.80;3.47;;;15.20;99.90;;;;;;5053631;28;20048;-75
2023/08/24 04:37:16;;;;;;;6.10;3.25;;;15.20;99.90;;;;;;5052051;28;20037;-74
2023/08/24 04:39:41;;;;;;;4.63;2.92;;;15.20;99.90;;;;;;5053432;28;20044;-74
2023/08/24 04:42:07;;;;;;;6.05;2.80;;;15.20;99.90;;;;;;5053733;28;20041;-74
2023/08/24 04:44:33;;;;;;;4.65;3.30;;;15.20;99.90;;;;;;5054528;28;20088;-74
2023/08/24 04:46:59;;;;;;;5.47;2.90;;;15.20;99.90;;;;;;5035717;28;20044;-74
2023/08/24 04:49:24;;;;;;;3.83;2.60;;;15.20;99.90;;;;;;5053657;28;20044;-74
2023/08/24 04:51:50;;;;;;;4.10;3.17;;;15.10;99.90;;;;;;5054196;28;20051;-74
2023/08/24 04:54:16;;;;;;;3.90;2.80;;;15.10;99.90;;;;;;5053688;28;20044;-74
2023/08/24 04:56:41;;;;;;;3.70;2.75;;;15.10;99.90;;;;;;5054468;28;20449;-73
2023/08/24 04:59:07;;;;;;;3.03;2.25;;;15.00;99.90;;;;;;5035945;28;20111;-73
2023/08/24 05:01:34;;;;;;;4.70;2.90;;;15.00;99.90;;;;;;5054185;28;20045;-73
2023/08/24 05:04:00;;;;;;;3.45;2.75;;;15.00;99.90;;;;;;5053598;28;20049;-73
2023/08/24 05:06:26;;;;;;;4.18;2.80;;;14.90;99.90;;;;;;5053635;28;20550;-73
2023/08/24 05:08:51;;;;;;;3.90;2.30;;;14.90;99.90;;;;;;5053470;28;20129;-73
2023/08/24 05:11:19;;;;;;;3.83;2.70;;;14.90;99.90;;;;;;5053452;28;20045;-74
2023/08/24 05:13:45;;;;;;;3.63;2.33;;;14.90;99.90;;;;;;5052604;28;20041;-74
2023/08/24 05:16:11;;;;;;;3.72;2.53;;;14.90;99.90;;;;;;5053994;28;20049;-73
2023/08/24 05:18:37;;;;;;;3.97;2.63;;;15.00;99.90;;;;;;5053481;28;20080;-74
2023/08/24 05:21:03;;;;;;;4.18;3.17;;;15.00;99.90;;;;;;5053923;28;20458;-73
2023/08/24 05:23:30;;;;;;;5.00;3.15;;;15.10;99.90;;;;;;5053366;28;20051;-73
2023/08/24 05:26:00;;;;;;;5.03;3.72;;;15.20;99.90;;;;;;5053222;28;20053;-73
2023/08/24 05:28:28;;;;;;;5.13;3.50;;;15.30;99.90;;;;;;5053054;28;20472;-74
2023/08/24 05:30:55;;;;;;;5.97;3.67;;;15.40;99.90;;;;;;5053613;28;20490;-74
2023/08/24 05:33:21;;;;;;;5.15;3.70;;;15.50;99.90;;;;;;5057322;28;20057;-73
2023/08/24 05:35:50;;;;;;;5.50;3.72;;;15.60;99.90;;;;;;5056372;28;20056;-73
2023/08/24 05:38:17;;;;;;;5.93;4.30;;;15.70;99.90;;;;;;5057304;28;20080;-74
2023/08/24 05:40:43;;;;;;;5.10;4.15;;;15.80;99.90;;;;;;5057242;28;20473;-74
2023/08/24 05:43:10;;;;;;;5.70;4.15;;;15.80;99.90;;;;;;5057234;28;20478;-74
2023/08/24 05:45:36;;;;;;;8.90;4.38;;;15.90;99.90;;;;;;5057165;28;20045;-73
2023/08/24 05:48:02;;;;;;;5.32;4.10;;;16.10;99.90;;;;;;5057163;28;20052;-74
2023/08/24 05:50:28;;;;;;;6.90;4.20;;;16.20;99.90;;;;;;5056982;28;20037;-74
2023/08/24 05:52:54;;;;;;;6.20;4.05;;;16.20;99.90;;;;;;5057841;28;20175;-75
2023/08/24 05:55:20;;;;;;;6.97;3.97;;;16.30;99.90;;;;;;5056597;28;20110;-74
2023/08/24 05:57:46;;;;;;;5.38;3.80;;;16.40;99.90;;;;;;5056888;28;20084;-74
2023/08/24 06:00:12;;;;;;;5.55;4.00;;;16.40;99.90;;;;;;5057683;28;20045;-74
2023/08/24 06:02:39;;;;;;;6.10;3.67;;;16.50;99.90;;;;;;5057588;28;20450;-74
2023/08/24 06:05:06;;;;;;;6.07;3.72;;;16.50;99.90;;;;;;5056689;28;20060;-74
2023/08/24 06:07:32;;;;;;;4.72;3.60;;;16.50;99.90;;;;;;5055819;28;20044;-75
2023/08/24 06:09:58;;;;;;;4.70;3.60;;;16.60;99.90;;;;;;5056353;28;20489;-74
2023/08/24 06:12:24;;;;;;;5.00;3.83;;;16.70;99.90;;;;;;5039443;28;20080;-68
2023/08/24 06:14:49;;;;;;;6.15;3.70;;;16.70;99.90;;;;;;5056588;28;20154;-68
2023/08/24 06:17:15;;;;;;;7.97;4.35;;;16.80;99.90;;;;;;5056539;28;20044;-69
2023/08/24 06:19:41;;;;;;;5.38;3.47;;;16.90;99.90;;;;;;5056824;28;20128;-69
2023/08/24 06:22:07;;;;;;;6.10;4.15;;;17.00;99.90;;;;;;5056497;28;20090;-70
2023/08/24 06:24:32;;;;;;;4.97;3.78;;;17.10;99.90;;;;;;5056434;28;20470;-69
2023/08/24 06:26:58;;;;;;;5.35;4.00;;;17.20;99.90;;;;;;5057126;28;20053;-69
2023/08/24 06:29:24;;;;;;;5.90;3.92;;;17.30;99.90;;;;;;5056377;28;20110;-69
2023/08/24 06:31:49;;;;;;;6.28;3.90;;;17.50;99.90;;;;;;5038558;28;20059;-69
2023/08/24 06:34:15;;;;;;;6.30;4.32;;;17.60;99.90;;;;;;5039551;28;20049;-68
2023/08/24 06:36:41;;;;;;;7.20;4.68;;;17.80;99.90;;;;;;5056056;28;20132;-68
2023/08/24 06:39:08;;;;;;;6.53;4.75;;;17.90;99.90;;;;;;5056095;28;20047;-68
2023/08/24 06:41:36;;;;;;;8.40;5.13;;;17.90;99.90;;;;;;5055948;28;20045;-68
2023/08/24 06:44:02;;;;;;;8.38;5.07;;;18.00;99.90;;;;;;5055923;28;20055;-69
2023/08/24 06:46:29;;;;;;;7.47;5.10;;;18.10;99.90;;;;;;5056590;28;20041;-68
2023/08/24 06:48:55;;;;;;;7.45;5.43;;;18.10;99.90;;;;;;5056562;28;20132;-68
2023/08/24 06:51:20;;;;;;;7.82;5.13;;;18.20;99.90;;;;;;5055882;28;20194;-68
2023/08/24 06:53:48;;;;;;;8.18;5.07;;;18.20;99.90;;;;;;5055869;28;20048;-68
2023/08/24 06:56:20;;;;;;;10.45;6.45;;;18.30;99.90;;;;;;5055754;28;20052;-68
2023/08/24 06:58:48;;;;;;;8.48;5.30;;;18.40;99.90;;;;;;5055917;28;20045;-68
2023/08/24 07:01:13;;;;;;;8.13;6.15;;;18.50;99.90;;;;;;5055764;28;20033;-68
2023/08/24 07:03:39;;;;;;;9.30;6.45;;;18.60;99.90;;;;;;5037952;28;20044;-68
2023/08/24 07:06:12;;;;;;;8.68;5.88;;;18.70;99.90;;;;;;5055678;28;20123;-69
2023/08/24 07:08:38;;;;;;;11.93;6.43;;;18.80;99.90;;;;;;5055935;28;20488;-68
2023/08/24 07:11:04;;;;;;;7.35;5.93;;;18.90;99.90;;;;;;5055431;28;20049;-68
2023/08/24 07:13:30;;;;;;;11.48;6.40;;;18.90;99.90;;;;;;5055141;28;20374;-70
2023/08/24 07:15:56;;;;;;;10.93;7.07;;;19.10;99.90;;;;;;5037960;28;20115;-68
2023/08/24 07:18:21;;;;;;;10.75;6.65;;;19.20;99.90;;;;;;5055950;28;20037;-67
2023/08/24 07:20:47;;;;;;;10.80;6.90;;;19.20;99.90;;;;;;5055102;28;20405;-67
2023/08/24 07:23:13;;;;;;;8.13;6.20;;;19.30;99.90;;;;;;5055964;28;20045;-67
2023/08/24 07:25:39;;;;;;;9.48;6.72;;;19.40;99.90;;;;;;5055104;28;20127;-67
2023/08/24 07:28:04;;;;;;;9.20;6.65;;;19.40;99.90;;;;;;5055872;28;20087;-67
2023/08/24 07:30:31;;;;;;;11.30;7.28;;;19.50;99.90;;;;;;5055010;28;20064;-67
2023/08/24 07:32:57;;;;;;;10.07;6.72;;;19.60;99.90;;;;;;5054860;28;20421;-67
2023/08/24 07:35:26;;;;;;;11.20;7.25;;;19.60;99.90;;;;;;5054896;28;20049;-67
2023/08/24 07:37:52;;;;;;;9.90;7.45;;;19.70;99.90;;;;;;5055468;28;20085;-67
2023/08/24 07:40:18;;;;;;;9.60;6.75;;;19.80;99.90;;;;;;5054803;28;20091;-68
2023/08/24 07:42:52;;;;;;;12.38;6.82;;;19.90;99.90;;;;;;5055401;28;20056;-67
2023/08/24 07:45:19;;;;;;;11.45;6.60;;;20.00;99.90;;;;;;5053649;28;20085;-69
2023/08/24 07:47:44;;;;;;;9.32;6.13;;;20.10;99.90;;;;;;5054779;28;20428;-67
2023/08/24 07:50:11;;;;;;;9.52;6.25;;;20.10;99.90;;;;;;5054558;28;20045;-68
2023/08/24 07:52:38;;;;;;;10.70;6.22;;;20.20;99.90;;;;;;5054464;28;20076;-68
2023/08/24 07:55:06;;;;;;;10.85;6.55;;;20.20;99.90;;;;;;5053273;28;20498;-69
2023/08/24 07:57:33;;;;;;;9.43;6.63;;;20.30;99.90;;;;;;5054973;28;20044;-70
2023/08/24 07:59:59;;;;;;;10.15;6.85;;;20.40;99.90;;;;;;5054508;28;20102;-67
2023/08/24 08:02:25;;;;;;;9.63;6.70;;;20.50;99.90;;;;;;5054336;28;20044;-69
2023/08/24 08:04:51;;;;;;;8.95;6.07;;;20.60;99.90;;;;;;5054192;28;20397;-69
2023/08/24 08:07:16;;;;;;;8.70;6.28;;;20.70;99.90;;;;;;5054243;28;20052;-69
2023/08/24 08:09:42;;;;;;;9.57;5.60;;;20.70;99.90;;;;;;5054819;28;20071;-69
2023/08/24 08:12:08;;;;;;;10.68;6.80;;;20.80;99.90;;;;;;5054204;28;20041;-69
2023/08/24 08:14:34;;;;;;;11.45;7.13;;;21.00;99.90;;;;;;5036634;28;20044;-66
2023/08/24 08:16:59;;;;;;;10.43;6.60;;;21.00;99.90;;;;;;5054261;28;20130;-66
2023/08/24 08:19:27;;;;;;;7.00;6.18;;;21.10;99.90;;;;;;5054201;28;20045;-70
2023/08/24 08:21:53;;;;;;;9.50;6.05;;;21.10;99.90;;;;;;5054197;28;20049;-66
2023/08/24 08:24:19;;;;;;;8.80;6.22;;;21.20;99.90;;;;;;5054091;28;20041;-67
2023/08/24 08:26:45;;;;;;;12.70;7.28;;;21.30;99.90;;;;;;5036494;28;20095;-68
2023/08/24 08:29:10;;;;;;;11.18;7.05;;;21.40;99.90;;;;;;5053987;28;20045;-65
2023/08/24 08:31:36;;;;;;;9.93;7.40;;;21.50;99.90;;;;;;5054327;28;20494;-68
2023/08/24 08:34:04;;;;;;;9.48;7.75;;;21.60;99.90;;;;;;5053815;28;20111;-67
2023/08/24 08:36:32;;;;;;;10.35;7.13;;;21.70;99.90;;;;;;5054600;28;20049;-67
2023/08/24 08:38:58;;;;;;;11.57;7.18;;;21.80;99.90;;;;;;5054337;28;20049;-67
2023/08/24 08:41:27;;;;;;;8.48;6.30;;;21.90;99.90;;;;;;5053635;28;20037;-66
2023/08/24 08:43:53;;;;;;;9.70;7.00;;;22.10;99.90;;;;;;5053775;28;20045;-67
2023/08/24 08:46:19;;;;;;;8.55;6.68;;;22.20;99.90;;;;;;5054221;28;20056;-67
2023/08/24 08:48:50;;;;;;;11.88;7.07;;;22.20;99.90;;;;;;5053717;28;20488;-67
2023/08/24 08:51:17;;;;;;;8.35;6.20;;;22.30;99.90;;;;;;5053578;28;20604;-66
2023/08/24 08:53:43;;;;;;;7.32;6.00;;;22.40;99.90;;;;;;5053330;28;20402;-69
2023/08/24 08:56:09;;;;;;;8.40;6.10;;;22.50;99.90;;;;;;5052599;28;20448;-68
2023/08/24 08:58:36;;;;;;;8.85;5.70;;;22.70;99.90;;;;;;5053475;28;20131;-68
2023/08/24 09:01:05;;;;;;;8.95;6.97;;;22.80;99.90;;;;;;5052692;28;20436;-69
2023/08/24 09:03:32;;;;;;;9.10;5.63;;;23.00;99.90;;;;;;5051113;28;20048;-69
2023/08/24 09:05:58;;;;;;;7.95;5.82;;;23.10;99.90;;;;;;5052897;28;20383;-69
2023/08/24 09:08:27;;;;;;;9.20;6.18;;;23.20;99.90;;;;;;5053406;28;20095;-69
2023/08/24 09:10:54;;;;;;;8.55;6.22;;;23.30;99.90;;;;;;5053339;28;20125;-69
2023/08/24 09:13:21;;;;;;;7.72;5.57;;;23.30;99.90;;;;;;5054005;28;20333;-68
2023/08/24 09:15:48;;;;;;;8.35;5.75;;;23.30;99.90;;;;;;5052951;28;20045;-70
2023/08/24 09:18:14;;;;;;;6.75;5.75;;;23.40;99.90;;;;;;5053832;28;20045;-68
2023/08/24 09:20:41;;;;;;;8.20;5.55;;;23.40;99.90;;;;;;5053282;28;20049;-69
2023/08/24 09:23:18;;;;;;;8.02;5.47;;;23.40;99.90;;;;;;5053252;28;20102;-68
2023/08/24 09:25:48;;;;;;;7.85;5.63;;;23.50;99.90;;;;;;5053772;28;20047;-69
2023/08/24 09:28:14;;;;;;;9.43;6.13;;;23.50;99.90;;;;;;5053223;28;20052;-69
2023/08/24 09:30:39;;;;;;;7.30;6.13;;;23.50;99.90;;;;;;5053368;28;20409;-69
2023/08/24 09:33:10;;;;;;;6.85;5.05;;;23.60;99.90;;;;;;5053730;28;20057;-68
2023/08/24 09:35:36;;;;;;;6.97;5.10;;;23.60;99.90;;;;;;5052904;28;20556;-68
2023/08/24 09:38:24;;;;;;;5.80;4.45;;;23.70;99.90;;;;;;5053088;28;20045;-67
2023/08/24 09:40:56;;;;;;;6.50;5.15;;;23.90;99.90;;;;;;5052385;28;20477;-67
2023/08/24 09:43:23;;;;;;;8.38;4.68;;;24.00;99.90;;;;;;5053186;28;20060;-68
2023/08/24 09:45:56;;;;;;;8.68;5.70;;;24.30;99.90;;;;;;5051849;28;20556;-67
2023/08/24 09:48:23;;;;;;;7.78;5.00;;;24.30;99.90;;;;;;5053808;28;20107;-67
2023/08/24 09:50:52;;;;;;;6.68;4.43;;;24.30;99.90;;;;;;5034820;28;20545;-67
2023/08/24 09:53:22;;;;;;;7.10;4.72;;;24.40;99.90;;;;;;5053049;28;20056;-67
2023/08/24 09:56:08;;;;;;;6.18;4.45;;;24.30;99.90;;;;;;5053171;28;20132;-68
2023/08/24 09:58:34;;;;;;;5.95;4.63;;;24.20;99.90;;;;;;5052619;28;20053;-68
2023/08/24 10:01:03;;;;;;;6.45;4.68;;;24.10;99.90;;;;;;5053387;28;20090;-68
2023/08/24 10:03:31;;;;;;;7.60;4.82;;;24.00;99.90;;;;;;5035189;28;20113;-67
2023/08/24 10:06:00;;;;;;;7.47;4.47;;;23.90;99.90;;;;;;5052913;28;20053;-67
2023/08/24 10:08:29;;;;;;;9.82;5.13;;;23.80;99.90;;;;;;5052840;28;20041;-68
2023/08/24 10:10:58;;;;;;;5.40;4.22;;;23.70;99.90;;;;;;5053270;28;20120;-68
2023/08/24 10:13:53;;;;;;;6.00;5.03;;;23.70;99.90;;;;;;5052849;28;20049;-69
2023/08/24 10:16:21;;;;;;;7.03;4.57;;;23.70;99.90;;;;;;5052677;28;20494;-68
2023/08/24 10:18:47;;;;;;;7.78;5.22;;;23.70;99.90;;;;;;5039083;28;20056;-68
2023/08/24 10:21:14;;;;;;;7.45;4.95;;;23.60;99.90;;;;;;5056765;28;20355;-68
2023/08/24 10:23:43;;;;;;;6.97;4.90;;;23.60;99.90;;;;;;5056921;28;20449;-68
2023/08/24 10:26:10;;;;;;;6.55;4.45;;;23.60;99.90;;;;;;5055313;28;20402;-67
2023/08/24 10:28:36;;;;;;;6.60;4.50;;;23.60;99.90;;;;;;5056213;28;20099;-67
2023/08/24 10:31:03;;;;;;;6.15;4.80;;;23.60;99.90;;;;;;5055977;28;20524;-67
2023/08/24 10:33:30;;;;;;;6.47;4.32;;;23.60;99.90;;;;;;5055951;28;20481;-67
2023/08/24 10:35:56;;;;;;;6.18;4.40;;;23.60;99.90;;;;;;5055972;28;20107;-67
2023/08/24 10:38:24;;;;;;;6.20;4.63;;;23.50;99.90;;;;;;5056064;28;20045;-67
2023/08/24 10:40:51;;;;;;;6.75;4.68;;;23.60;99.90;;;;;;5056022;28;20095;-68
2023/08/24 10:43:17;;;;;;;7.80;4.65;;;23.60;99.90;;;;;;5056580;28;20059;-68
2023/08/24 10:45:59;;;;;;;7.32;4.70;;;23.60;99.90;;;;;;5055615;28;20056;-68
2023/08/24 10:48:49;;;;;;;8.18;4.47;;;23.50;99.90;;;;;;5056237;28;20041;-68
2023/08/24 10:51:21;;;;;;;7.93;4.60;;;23.60;99.90;;;;;;5037925;28;20435;-69
2023/08/24 10:53:51;;;;;;;7.40;5.10;;;23.60;99.90;;;;;;5055959;28;20044;-68
2023/08/24 10:56:18;;;;;;;5.55;4.95;;;23.60;99.90;;;;;;5055994;28;20045;-69
2023/08/24 10:58:45;;;;;;;7.65;5.38;;;23.60;99.90;;;;;;5055464;28;20080;-69
2023/08/24 11:01:17;;;;;;;7.15;5.15;;;23.70;99.90;;;;;;5038464;28;20037;-69
2023/08/24 11:03:50;;;;;;;7.47;5.60;;;23.70;99.90;;;;;;5055366;28;20052;-69
2023/08/24 11:06:24;;;;;;;6.00;5.10;;;23.70;99.90;;;;;;5055383;28;20049;-69
2023/08/24 11:09:13;;;;;;;7.50;4.90;;;23.80;99.90;;;;;;5055251;28;20053;-69
2023/08/24 11:11:40;;;;;;;6.75;5.03;;;23.90;99.90;;;;;;5053783;28;20049;-67
2023/08/24 11:14:21;;;;;;;6.50;4.55;;;24.10;99.90;;;;;;5056033;28;20381;-68
2023/08/24 11:16:48;;;;;;;5.40;4.78;;;24.20;99.90;;;;;;5054028;28;20048;-68
2023/08/24 11:19:15;;;;;;;7.53;5.22;;;24.30;99.90;;;;;;5055047;28;20045;-68
2023/08/24 11:21:43;;;;;;;6.57;5.20;;;24.40;99.90;;;;;;5055104;28;20130;-67
2023/08/24 11:24:13;;;;;;;8.80;5.53;;;24.40;99.90;;;;;;5055783;28;20118;-67
2023/08/24 11:26:47;;;;;;;8.48;5.13;;;24.50;99.90;;;;;;5037064;28;20103;-67
2023/08/24 11:29:13;;;;;;;5.72;4.68;;;24.60;99.90;;;;;;5053853;28;20041;-67
2023/08/24 11:31:39;;;;;;;6.78;5.35;;;24.70;99.90;;;;;;5055191;28;20045;-68
2023/08/24 11:34:07;;;;;;;7.50;5.45;;;24.80;99.90;;;;;;5054845;28;20107;-67
2023/08/24 11:36:44;;;;;;;7.70;5.43;;;24.90;99.90;;;;;;5053637;28;20075;-68
2023/08/24 11:39:19;;;;;;;7.30;4.75;;;25.00;99.90;;;;;;5055085;28;20080;-68
2023/08/24 11:42:05;;;;;;;8.25;5.07;;;25.10;99.90;;;;;;5054717;28;20123;-69
2023/08/24 11:44:48;;;;;;;7.10;5.20;;;25.00;99.90;;;;;;5055165;28;20071;-67
2023/08/24 11:47:14;;;;;;;6.28;4.75;;;24.90;99.90;;;;;;5054442;28;20084;-68
2023/08/24 11:49:40;;;;;;;6.85;4.60;;;24.80;99.90;;;;;;5054480;28;20102;-68
2023/08/24 11:52:06;;;;;;;5.50;4.38;;;24.80;99.90;;;;;;5054437;28;20045;-67
2023/08/24 11:54:33;;;;;;;6.80;4.43;;;24.80;99.90;;;;;;5054120;28;20547;-67
2023/08/24 11:56:59;;;;;;;5.97;4.15;;;24.70;99.90;;;;;;5054394;28;20053;-68
2023/08/24 11:59:25;;;;;;;5.75;4.43;;;24.70;99.90;;;;;;5054433;28;20465;-68
2023/08/24 12:01:52;;;;;;;6.30;4.00;;;24.70;99.90;;;;;;5053280;28;20060;-68
2023/08/24 12:04:18;;;;;;;6.95;4.32;;;24.70;99.90;;;;;;5054361;28;20053;-68
2023/08/24 12:06:44;;;;;;;5.65;4.35;;;24.80;99.90;;;;;;5054359;28;20085;-68
2023/08/24 12:09:10;;;;;;;6.53;4.15;;;24.90;99.90;;;;;;5054215;28;20095;-68
2023/08/24 12:11:37;;;;;;;8.05;4.25;;;24.90;99.90;;;;;;5054142;28;20076;-68
2023/08/24 12:14:04;;;;;;;5.55;4.10;;;24.80;99.90;;;;;;5053969;28;20076;-67
2023/08/24 12:16:32;;;;;;;6.68;4.10;;;24.80;99.90;;;;;;5053721;28;20490;-68
2023/08/24 12:19:02;;;;;;;5.78;4.05;;;24.70;99.90;;;;;;5054020;28;20053;-68
2023/08/24 12:21:29;;;;;;;6.65;4.30;;;24.70;99.90;;;;;;5054583;28;20037;-67
2023/08/24 12:23:59;;;;;;;4.20;3.53;;;24.60;99.90;;;;;;5053940;28;20075;-67
2023/08/24 12:26:26;;;;;;;5.63;3.83;;;24.50;99.90;;;;;;5053881;28;20056;-67
2023/08/24 12:28:52;;;;;;;6.78;4.10;;;24.50;99.90;;;;;;5036644;28;20048;-68
2023/08/24 12:31:19;;;;;;;5.47;4.22;;;24.40;99.90;;;;;;5053758;28;20080;-68
2023/08/24 12:33:46;;;;;;;5.70;4.20;;;24.40;99.90;;;;;;5053817;28;20512;-68
2023/08/24 12:36:12;;;;;;;5.60;4.32;;;24.40;99.90;;;;;;5053498;28;20131;-67
2023/08/24 12:38:38;;;;;;;6.80;4.15;;;24.50;99.90;;;;;;5036094;28;20130;-68
2023/08/24 12:41:04;;;;;;;7.05;4.10;;;24.60;99.90;;;;;;5053454;28;20533;-67
2023/08/24 12:43:30;;;;;;;6.15;4.10;;;24.70;99.90;;;;;;5053637;28;20088;-68
2023/08/24 12:45:55;;;;;;;6.00;4.25;;;24.90;99.90;;;;;;5053639;28;20044;-68